Terminal Aerodrome Forecast
Issued by NWS

Home | Current Version | Previous Version | Text Only | Print | Product List | Glossary On
Versions: 1 2 3 4 5 6 7 8 9 10 11 12 13
383
FTUS44 KTSA 251720
TAFMLC
TAF
KMLC 251720Z 2518/2618 09006KT P6SM FEW120
     FM260600 VRB03KT P6SM BKN120=

USA.gov is the U.S. government's official web portal to all federal, state and local government web resources and services.